Time;durP1;ratioP1;P1;durP2;ratioP2;P2;SDS_P1;SDS_P2;PMS_P1;PMS_P2;Temp;Humidity;BMP_temperature;BMP_pressure;BME280_temperature;BME280_humidity;BME280_pressure;Samples;Min_cycle;Max_cycle;Signal;HPM_P1;HPM_P2
2020/12/28 00:02:11;;;;;;;;;;;;;;;9.81;55.15;95973.91;4980572;28;19929;-77
2020/12/28 00:04:37;;;;;;;;;;;;;;;9.84;54.93;95978.06;4980750;28;19922;-80
2020/12/28 00:07:02;;;;;;;;;;;;;;;9.77;55.27;95988.44;4981279;28;19933;-79
2020/12/28 00:09:28;;;;;;;;;;;;;;;9.71;55.30;95987.22;4981200;28;19933;-78
2020/12/28 00:11:56;;;;;;;;;;;;;;;9.77;55.35;95978.69;4978421;28;19969;-78
2020/12/28 00:14:21;;;;;;;;;;;;;;;9.84;55.11;95965.66;4964530;28;19953;-81
2020/12/28 00:16:47;;;;;;;;;;;;;;;9.81;55.73;95960.69;4979302;28;20302;-83
2020/12/28 00:19:13;;;;;;;;;;;;;;;9.75;55.53;95961.34;4981690;28;20368;-82
2020/12/28 00:21:38;;;;;;;;;;;;;;;9.71;55.98;95963.44;4965038;28;20201;-81
2020/12/28 00:24:03;;;;;;;;;;;;;;;9.70;55.79;95963.59;4980525;28;19922;-82
2020/12/28 00:26:34;;;;;;;;;;;;;;;9.77;55.77;95967.28;4980977;28;20008;-82
2020/12/28 00:28:59;;;;;;;;;;;;;;;9.89;55.35;95966.06;4978445;28;19922;-80
2020/12/28 00:31:25;;;;;;;;;;;;;;;9.98;55.17;95966.94;4964083;28;19933;-82
2020/12/28 00:33:50;;;;;;;;;;;;;;;10.06;55.23;95966.16;4981575;28;19922;-80
2020/12/28 00:36:15;;;;;;;;;;;;;;;10.10;54.87;95956.91;4980686;28;20285;-81
2020/12/28 00:38:41;;;;;;;;;;;;;;;10.06;54.89;95953.75;4981259;28;20017;-82
2020/12/28 00:41:08;;;;;;;;;;;;;;;9.98;55.38;95959.81;4964769;28;19922;-83
2020/12/28 00:43:34;;;;;;;;;;;;;;;9.96;55.57;95956.50;4966284;28;19933;-82
2020/12/28 00:45:59;;;;;;;;;;;;;;;9.82;55.47;95949.13;4979790;28;20379;-84
2020/12/28 00:48:24;;;;;;;;;;;;;;;9.63;55.74;95950.97;4968539;28;20221;-82
2020/12/28 00:50:50;;;;;;;;;;;;;;;9.64;55.76;95952.66;4989335;28;19926;-82
2020/12/28 00:53:15;;;;;;;;;;;;;;;9.67;55.70;95945.38;4989553;28;19922;-83
2020/12/28 00:55:40;;;;;;;;;;;;;;;9.73;56.12;95942.97;4971841;28;20269;-83
2020/12/28 00:58:06;;;;;;;;;;;;;;;9.73;56.15;95942.13;4983081;28;19926;-83
2020/12/28 01:00:31;;;;;;;;;;;;;;;9.77;55.49;95946.13;4981053;28;19926;-81
2020/12/28 01:02:56;;;;;;;;;;;;;;;9.95;55.51;95943.44;4979003;28;20523;-79
2020/12/28 01:05:22;;;;;;;;;;;;;;;10.15;54.69;95949.38;4980381;28;19937;-80
2020/12/28 01:07:47;;;;;;;;;;;;;;;10.17;54.84;95942.91;4981981;28;19977;-79
2020/12/28 01:10:12;;;;;;;;;;;;;;;10.09;54.80;95926.19;4982887;28;20442;-81
2020/12/28 01:12:38;;;;;;;;;;;;;;;10.07;55.29;95933.41;4980551;28;19922;-81
2020/12/28 01:15:03;;;;;;;;;;;;;;;10.10;54.75;95947.19;4981046;28;20285;-82
2020/12/28 01:17:28;;;;;;;;;;;;;;;10.04;54.57;95952.28;4979174;28;19973;-82
2020/12/28 01:19:54;;;;;;;;;;;;;;;10.03;55.08;95961.19;4977638;28;19922;-82
2020/12/28 01:22:19;;;;;;;;;;;;;;;10.00;54.72;95968.44;4979299;28;19929;-78
2020/12/28 01:24:44;;;;;;;;;;;;;;;10.06;54.71;95974.09;4979069;28;19929;-82
2020/12/28 01:27:09;;;;;;;;;;;;;;;10.02;54.73;95983.31;4977077;28;19929;-81
2020/12/28 01:29:35;;;;;;;;;;;;;;;9.92;54.93;95997.44;4979491;28;19922;-80
2020/12/28 01:32:00;;;;;;;;;;;;;;;9.89;54.99;96003.06;4978751;28;19933;-80
2020/12/28 01:34:25;;;;;;;;;;;;;;;10.03;54.80;95998.22;4978386;28;19922;-80
2020/12/28 01:36:50;;;;;;;;;;;;;;;10.11;54.34;95999.06;4978489;28;19922;-79
2020/12/28 01:39:16;;;;;;;;;;;;;;;10.13;54.34;95991.00;4978500;28;20346;-79
2020/12/28 01:41:41;;;;;;;;;;;;;;;10.07;54.55;95981.03;4979501;28;19922;-84
2020/12/28 01:44:07;;;;;;;;;;;;;;;9.95;55.34;95997.16;4978902;28;20261;-81
2020/12/28 01:46:32;;;;;;;;;;;;;;;10.03;54.91;95991.09;4960830;28;19923;-82
2020/12/28 01:48:57;;;;;;;;;;;;;;;10.05;55.06;95991.78;4978837;28;19922;-82
2020/12/28 01:51:24;;;;;;;;;;;;;;;10.13;54.69;95997.13;4961410;28;19922;-82
2020/12/28 01:53:50;;;;;;;;;;;;;;;10.11;54.62;95995.63;4978513;28;19973;-80
2020/12/28 01:56:16;;;;;;;;;;;;;;;10.02;54.93;95996.53;4980048;28;20233;-83
2020/12/28 01:58:41;;;;;;;;;;;;;;;10.14;54.59;95995.31;4979136;28;19926;-81
2020/12/28 02:01:09;;;;;;;;;;;;;;;10.22;54.30;95990.06;4979640;28;19933;-84
2020/12/28 02:03:34;;;;;;;;;;;;;;;10.35;54.14;95982.59;4978762;28;19968;-82
2020/12/28 02:05:59;;;;;;;;;;;;;;;10.35;54.32;95987.03;4978965;28;19962;-83
2020/12/28 02:08:25;;;;;;;;;;;;;;;10.35;53.74;95984.38;4979434;28;19933;-83
2020/12/28 02:10:54;;;;;;;;;;;;;;;10.33;54.09;95981.88;4960198;28;19954;-82
2020/12/28 02:13:19;;;;;;;;;;;;;;;10.43;53.77;95978.31;4961783;28;19922;-82
2020/12/28 02:15:45;;;;;;;;;;;;;;;10.54;53.68;95981.50;4979230;28;19929;-80
2020/12/28 02:18:13;;;;;;;;;;;;;;;10.49;53.57;95978.50;4978729;28;20711;-79
2020/12/28 02:20:38;;;;;;;;;;;;;;;10.47;53.66;95977.00;4979010;28;19929;-81
2020/12/28 02:23:03;;;;;;;;;;;;;;;10.43;53.84;95986.25;4979261;28;19948;-82
2020/12/28 02:25:29;;;;;;;;;;;;;;;10.42;53.83;95971.34;4961262;28;20309;-84
2020/12/28 02:27:54;;;;;;;;;;;;;;;10.42;53.64;95966.03;4979293;28;20346;-81
2020/12/28 02:30:19;;;;;;;;;;;;;;;10.59;53.71;95967.78;4977202;28;19918;-82
2020/12/28 02:32:45;;;;;;;;;;;;;;;10.70;53.00;95971.97;4978671;28;20349;-81
2020/12/28 02:35:10;;;;;;;;;;;;;;;10.69;53.23;95973.81;4978797;28;19993;-81
2020/12/28 02:37:35;;;;;;;;;;;;;;;10.86;53.12;95963.25;4978623;28;19941;-83
2020/12/28 02:40:01;;;;;;;;;;;;;;;10.90;52.46;95962.78;4978936;28;19922;-78
2020/12/28 02:42:26;;;;;;;;;;;;;;;10.83;52.81;95967.06;4978439;28;19922;-79
2020/12/28 02:44:51;;;;;;;;;;;;;;;10.92;53.14;95961.81;4980780;28;19933;-81
2020/12/28 02:47:16;;;;;;;;;;;;;;;11.03;53.02;95964.97;4979098;28;19922;-82
2020/12/28 02:49:42;;;;;;;;;;;;;;;11.06;52.94;95969.94;4961622;28;20415;-81
2020/12/28 02:52:07;;;;;;;;;;;;;;;10.94;52.68;95965.13;4962810;28;19971;-81
2020/12/28 02:54:33;;;;;;;;;;;;;;;10.80;53.07;95959.44;4962095;28;19922;-81
2020/12/28 02:56:58;;;;;;;;;;;;;;;10.72;53.02;95954.94;4961847;28;19926;-81
2020/12/28 02:59:23;;;;;;;;;;;;;;;10.68;53.23;95956.25;4962319;28;19926;-79
2020/12/28 03:01:49;;;;;;;;;;;;;;;10.69;53.07;95952.63;4978657;28;19980;-80
2020/12/28 03:04:16;;;;;;;;;;;;;;;10.87;53.15;95949.84;4981332;28;19953;-76
2020/12/28 03:06:47;;;;;;;;;;;;;;;11.01;52.38;95955.50;4964674;28;19922;-79
2020/12/28 03:09:13;;;;;;;;;;;;;;;10.89;52.72;95955.81;4982960;28;19919;-80
2020/12/28 19:08:33;;;;;;;;;;;;;;;11.99;51.31;95867.25;3313365;26;19937;-81
2020/12/28 19:10:58;;;;;;;;;;;;;;;11.98;51.29;95868.22;4994822;28;19921;-81
2020/12/28 19:13:26;;;;;;;;;;;;;;;12.01;51.42;95867.06;4996013;28;19922;-80
2020/12/28 19:15:51;;;;;;;;;;;;;;;11.99;50.48;95867.25;4995447;28;19922;-80
2020/12/28 19:18:19;;;;;;;;;;;;;;;11.98;51.19;95866.44;4994847;28;20239;-81
2020/12/28 19:20:44;;;;;;;;;;;;;;;11.98;49.88;95868.22;4996784;28;19921;-82
2020/12/28 19:23:09;;;;;;;;;;;;;;;12.01;50.86;95873.19;4996802;28;20208;-83
2020/12/28 19:25:35;;;;;;;;;;;;;;;12.04;50.89;95870.22;4993054;28;19929;-81
2020/12/28 19:28:00;;;;;;;;;;;;;;;12.12;50.49;95864.88;4995456;28;19932;-82
2020/12/28 19:30:26;;;;;;;;;;;;;;;12.16;50.59;95881.31;4994944;28;19922;-83
2020/12/28 19:32:51;;;;;;;;;;;;;;;12.18;50.56;95880.13;4994135;28;20016;-80
2020/12/28 19:35:16;;;;;;;;;;;;;;;12.22;50.32;95880.63;4991147;28;19968;-81
2020/12/28 19:37:42;;;;;;;;;;;;;;;12.24;50.26;95885.72;4995273;28;19928;-81
2020/12/28 19:40:07;;;;;;;;;;;;;;;12.29;50.03;95878.94;4994953;28;19957;-80
2020/12/28 19:42:33;;;;;;;;;;;;;;;12.27;49.32;95877.44;4995671;28;19944;-78
2020/12/28 19:44:59;;;;;;;;;;;;;;;12.32;50.18;95883.91;4994304;28;19921;-77
2020/12/28 19:47:24;;;;;;;;;;;;;;;12.35;50.21;95888.03;4995654;28;19929;-78
2020/12/28 19:49:50;;;;;;;;;;;;;;;12.43;49.67;95885.34;4995646;28;20198;-79
2020/12/28 19:52:15;;;;;;;;;;;;;;;12.33;49.69;95879.41;4996000;28;20373;-82
2020/12/28 19:54:41;;;;;;;;;;;;;;;12.25;50.38;95879.44;4996468;28;20277;-82
2020/12/28 19:57:07;;;;;;;;;;;;;;;12.24;49.68;95878.63;4996592;28;19921;-80
2020/12/28 19:59:34;;;;;;;;;;;;;;;12.30;49.48;95869.13;4999364;28;19991;-80
2020/12/28 20:01:59;;;;;;;;;;;;;;;12.32;49.19;95872.47;4998563;28;19921;-82
2020/12/28 20:04:24;;;;;;;;;;;;;;;12.34;49.36;95873.09;4999758;28;20052;-81
2020/12/28 20:06:53;;;;;;;;;;;;;;;12.38;49.34;95866.47;5001012;28;19937;-80
2020/12/28 20:09:19;;;;;;;;;;;;;;;12.28;49.45;95868.47;5000432;28;19932;-82
2020/12/28 20:11:44;;;;;;;;;;;;;;;12.31;49.49;95862.84;5000731;28;19922;-81
2020/12/28 20:14:10;;;;;;;;;;;;;;;12.27;49.40;95850.88;4998965;28;19929;-81
2020/12/28 20:16:35;;;;;;;;;;;;;;;12.24;49.62;95856.53;4997615;28;19957;-85
2020/12/28 20:19:00;;;;;;;;;;;;;;;12.21;49.92;95851.59;5014632;28;20307;-80
2020/12/28 20:21:26;;;;;;;;;;;;;;;12.20;50.02;95855.25;4999304;28;19930;-81
2020/12/28 20:23:51;;;;;;;;;;;;;;;12.29;49.54;95859.53;4997735;28;19990;-82
2020/12/28 20:26:16;;;;;;;;;;;;;;;12.29;50.06;95838.28;4999717;28;19922;-78
2020/12/28 20:28:42;;;;;;;;;;;;;;;12.37;49.82;95842.75;4998931;28;19953;-81
2020/12/28 20:31:08;;;;;;;;;;;;;;;12.43;49.82;95834.91;4999758;28;19921;-81
2020/12/28 20:33:37;;;;;;;;;;;;;;;12.42;49.88;95838.56;4999534;28;20178;-81
2020/12/28 20:36:03;;;;;;;;;;;;;;;12.41;49.65;95842.19;4999865;28;19940;-81
2020/12/28 20:38:28;;;;;;;;;;;;;;;12.33;50.06;95834.28;4999434;28;19949;-82
2020/12/28 20:40:54;;;;;;;;;;;;;;;12.36;49.92;95839.25;4998822;28;19930;-80
2020/12/28 20:43:21;;;;;;;;;;;;;;;12.29;49.96;95839.13;4999530;28;20057;-80
2020/12/28 20:45:48;;;;;;;;;;;;;;;12.29;49.91;95843.59;4996593;28;19922;-82
2020/12/28 20:48:15;;;;;;;;;;;;;;;12.37;50.29;95838.25;4997344;28;19922;-82
2020/12/28 20:50:40;;;;;;;;;;;;;;;12.45;49.74;95840.88;4998838;28;19960;-80
2020/12/28 20:53:06;;;;;;;;;;;;;;;12.39;49.89;95838.91;4998900;28;20289;-82
2020/12/28 20:55:35;;;;;;;;;;;;;;;12.33;50.40;95834.28;4997689;28;19925;-81
2020/12/28 20:58:04;;;;;;;;;;;;;;;12.39;50.36;95841.56;4998783;28;20007;-82
2020/12/28 21:00:30;;;;;;;;;;;;;;;12.43;50.02;95840.22;4997578;28;19922;-82
2020/12/28 21:02:56;;;;;;;;;;;;;;;12.42;50.21;95840.41;4997761;28;19929;-80
2020/12/28 21:05:21;;;;;;;;;;;;;;;12.28;49.25;95834.78;4998088;28;19929;-78
2020/12/28 21:07:47;;;;;;;;;;;;;;;12.23;49.94;95834.50;5010053;28;20281;-78
2020/12/28 21:10:12;;;;;;;;;;;;;;;12.31;50.03;95829.16;4996629;28;19946;-81
2020/12/28 21:12:37;;;;;;;;;;;;;;;12.34;50.10;95831.44;4997630;28;19953;-82
2020/12/28 21:15:03;;;;;;;;;;;;;;;12.40;49.93;95829.94;4980783;28;20198;-81
2020/12/28 21:17:28;;;;;;;;;;;;;;;12.53;50.21;95835.50;4976462;28;20024;-79
2020/12/28 21:19:53;;;;;;;;;;;;;;;12.48;50.13;95826.44;4978567;28;20041;-79
2020/12/28 21:22:19;;;;;;;;;;;;;;;12.49;50.13;95823.59;4960983;28;20036;-82
2020/12/28 21:24:44;;;;;;;;;;;;;;;12.51;49.95;95818.94;4977848;28;20465;-82
2020/12/28 21:27:09;;;;;;;;;;;;;;;12.43;49.90;95818.97;4978680;28;20350;-78
2020/12/28 21:29:35;;;;;;;;;;;;;;;12.39;50.43;95822.97;4960505;28;20040;-81
2020/12/28 21:32:00;;;;;;;;;;;;;;;12.41;50.26;95826.28;4975573;28;20026;-81
2020/12/28 21:34:25;;;;;;;;;;;;;;;12.33;50.24;95824.50;4977341;28;19922;-79
2020/12/28 21:36:54;;;;;;;;;;;;;;;12.29;50.34;95823.19;4960740;28;19948;-80
2020/12/28 21:39:20;;;;;;;;;;;;;;;12.29;50.13;95825.84;4978640;28;19926;-81
2020/12/28 21:41:46;;;;;;;;;;;;;;;12.24;50.46;95822.03;4978153;28;19932;-81
2020/12/28 21:44:11;;;;;;;;;;;;;;;12.18;50.34;95827.03;4978008;28;19922;-79
2020/12/28 21:46:36;;;;;;;;;;;;;;;12.17;50.47;95824.56;4960777;28;19930;-80
2020/12/28 21:49:02;;;;;;;;;;;;;;;12.16;50.13;95826.41;4978737;28;19937;-81
2020/12/28 21:51:27;;;;;;;;;;;;;;;12.14;50.41;95828.41;4962237;28;19926;-82
2020/12/28 21:53:52;;;;;;;;;;;;;;;12.15;50.50;95827.38;4978780;28;19922;-79
2020/12/28 21:56:18;;;;;;;;;;;;;;;12.18;50.91;95820.91;4960569;28;20269;-81
2020/12/28 21:58:43;;;;;;;;;;;;;;;12.18;50.83;95827.03;4978458;28;19964;-80
2020/12/28 22:01:09;;;;;;;;;;;;;;;12.21;51.09;95828.53;4960821;28;19930;-82
2020/12/28 22:03:34;;;;;;;;;;;;;;;12.24;51.16;95822.88;4977713;28;19922;-79
2020/12/28 22:05:59;;;;;;;;;;;;;;;12.24;50.75;95828.19;4961601;28;19922;-81
2020/12/28 22:08:25;;;;;;;;;;;;;;;12.24;50.81;95824.69;4977676;28;19922;-82
2020/12/28 22:10:50;;;;;;;;;;;;;;;12.21;50.90;95831.19;4977092;28;20312;-81
2020/12/28 22:13:15;;;;;;;;;;;;;;;12.26;50.69;95828.84;4978503;28;20020;-81
2020/12/28 22:15:41;;;;;;;;;;;;;;;12.28;50.82;95828.66;4959395;28;19933;-81
2020/12/28 22:18:06;;;;;;;;;;;;;;;12.28;50.46;95818.88;4976983;28;20332;-81
2020/12/28 22:20:34;;;;;;;;;;;;;;;12.32;50.69;95824.69;4960794;28;19957;-80
2020/12/28 22:23:00;;;;;;;;;;;;;;;12.35;50.99;95829.66;4977714;28;19968;-79
2020/12/28 22:25:25;;;;;;;;;;;;;;;12.38;50.38;95826.66;4977966;28;19985;-80
2020/12/28 22:27:50;;;;;;;;;;;;;;;12.39;50.42;95822.16;4977650;28;19922;-81
2020/12/28 22:30:16;;;;;;;;;;;;;;;12.43;50.40;95823.44;4978167;28;19930;-83
2020/12/28 22:32:41;;;;;;;;;;;;;;;12.39;50.06;95824.81;4977195;28;19941;-78
2020/12/28 22:35:07;;;;;;;;;;;;;;;12.34;50.02;95827.97;4977217;28;20324;-79
2020/12/28 22:37:33;;;;;;;;;;;;;;;12.42;50.34;95829.78;4977236;28;20311;-80
2020/12/28 22:39:58;;;;;;;;;;;;;;;12.39;50.33;95825.63;4976764;28;19926;-80
2020/12/28 22:42:23;;;;;;;;;;;;;;;12.38;50.18;95821.34;4974869;28;19923;-80
2020/12/28 22:44:49;;;;;;;;;;;;;;;12.37;49.92;95827.63;4960034;28;19922;-81
2020/12/28 22:47:15;;;;;;;;;;;;;;;12.38;50.29;95826.66;4977024;28;19921;-77
2020/12/28 22:49:40;;;;;;;;;;;;;;;12.48;50.22;95826.44;4977484;28;20456;-82
2020/12/28 22:52:06;;;;;;;;;;;;;;;12.55;50.33;95827.38;4976762;28;19922;-77
2020/12/28 22:54:31;;;;;;;;;;;;;;;12.55;49.89;95822.06;4960233;28;19928;-81
2020/12/28 22:56:56;;;;;;;;;;;;;;;12.54;50.03;95815.94;4976284;28;19922;-80
2020/12/28 22:59:21;;;;;;;;;;;;;;;12.62;50.86;95819.53;4976846;28;19926;-84
2020/12/28 23:01:47;;;;;;;;;;;;;;;12.65;50.56;95822.69;4960798;28;19937;-81
2020/12/28 23:04:12;;;;;;;;;;;;;;;12.61;50.09;95815.25;4977644;28;19988;-80
2020/12/28 23:06:37;;;;;;;;;;;;;;;12.51;50.46;95818.94;4973771;28;19922;-80
2020/12/28 23:09:08;;;;;;;;;;;;;;;12.53;50.41;95816.94;4975192;28;19980;-78
2020/12/28 23:11:34;;;;;;;;;;;;;;;12.58;50.35;95820.91;4977878;28;20016;-79
2020/12/28 23:14:00;;;;;;;;;;;;;;;12.58;50.41;95815.59;4977063;28;19922;-85
2020/12/28 23:16:25;;;;;;;;;;;;;;;12.57;50.59;95820.03;4960377;28;20452;-82
2020/12/28 23:18:51;;;;;;;;;;;;;;;12.60;50.46;95818.88;4976689;28;20452;-81
2020/12/28 23:21:17;;;;;;;;;;;;;;;12.63;50.62;95822.00;4977609;28;19922;-80
2020/12/28 23:23:43;;;;;;;;;;;;;;;12.63;50.40;95814.03;4977166;28;19932;-81
2020/12/28 23:26:09;;;;;;;;;;;;;;;12.67;50.77;95817.19;4957080;28;19981;-81
2020/12/28 23:28:34;;;;;;;;;;;;;;;12.67;50.33;95822.50;4976287;28;19922;-83
2020/12/28 23:31:00;;;;;;;;;;;;;;;12.67;50.31;95815.34;4977062;28;19926;-79
2020/12/28 23:33:25;;;;;;;;;;;;;;;12.68;50.55;95816.19;4976877;28;19929;-81
2020/12/28 23:35:50;;;;;;;;;;;;;;;12.61;50.32;95816.06;4959587;28;20318;-83
2020/12/28 23:38:16;;;;;;;;;;;;;;;12.53;50.83;95818.75;4976771;28;20040;-81
2020/12/28 23:40:41;;;;;;;;;;;;;;;12.58;50.43;95820.91;4959840;28;19922;-81
2020/12/28 23:43:08;;;;;;;;;;;;;;;12.58;50.33;95820.91;4976891;28;19918;-81
2020/12/28 23:45:33;;;;;;;;;;;;;;;12.58;50.67;95821.72;4959187;28;19929;-82
2020/12/28 23:47:58;;;;;;;;;;;;;;;12.60;50.86;95818.88;4960208;28;19926;-81
2020/12/28 23:50:24;;;;;;;;;;;;;;;12.59;50.72;95814.56;4977774;28;19991;-82
2020/12/28 23:52:49;;;;;;;;;;;;;;;12.57;50.45;95813.91;4976738;28;20435;-81
2020/12/28 23:55:14;;;;;;;;;;;;;;;12.53;50.88;95818.75;4977195;28;19922;-82
2020/12/28 23:57:43;;;;;;;;;;;;;;;12.63;51.02;95829.97;4976458;28;19965;-81
